createdAt,value
2019-05-06T00:00:28.904Z,11.87
2019-05-06T00:02:04.900Z,8.77
2019-05-06T00:03:43.367Z,12.17
2019-05-06T00:05:19.797Z,11.17
2019-05-06T00:06:56.835Z,12.83
2019-05-06T00:08:34.532Z,15.07
2019-05-06T00:10:34.284Z,11.53
2019-05-06T00:12:10.944Z,8.97
2019-05-06T00:13:47.299Z,8.57
2019-05-06T00:15:23.908Z,13.33
2019-05-06T00:17:00.434Z,9.47
2019-05-06T00:18:36.791Z,10.83
2019-05-06T00:20:14.667Z,11.03
2019-05-06T00:21:51.143Z,8.43
2019-05-06T00:23:32.192Z,7.30
2019-05-06T00:25:25.776Z,8.70
2019-05-06T00:27:04.711Z,9.33
2019-05-06T00:28:44.679Z,7.60
2019-05-06T00:30:21.217Z,7.53
2019-05-06T00:31:57.815Z,7.60
2019-05-06T00:33:34.238Z,9.63
2019-05-06T00:35:10.160Z,7.27
2019-05-06T00:36:46.603Z,9.20
2019-05-06T00:38:24.659Z,7.60
2019-05-06T00:40:05.645Z,8.93
2019-05-06T00:41:43.414Z,5.93
2019-05-06T00:43:19.935Z,8.43
2019-05-06T00:44:56.424Z,6.03
2019-05-06T00:46:34.451Z,6.83
2019-05-06T00:48:10.931Z,7.10
2019-05-06T00:49:47.285Z,7.63
2019-05-06T00:51:24.484Z,9.23
2019-05-06T00:53:04.489Z,7.40
2019-05-06T00:54:40.831Z,8.37
2019-05-06T00:56:17.197Z,8.37
2019-05-06T00:57:54.482Z,7.70
2019-05-06T00:59:31.121Z,7.60
2019-05-06T01:01:07.442Z,8.77
2019-05-06T01:02:43.999Z,13.87
2019-05-06T01:04:20.585Z,9.97
2019-05-06T01:05:57.107Z,9.43
2019-05-06T01:07:34.482Z,10.50
2019-05-06T01:09:14.107Z,11.63
2019-05-06T01:10:50.516Z,9.37
2019-05-06T01:12:26.975Z,10.53
2019-05-06T01:14:11.126Z,11.70
2019-05-06T01:15:47.659Z,9.03
2019-05-06T01:17:24.527Z,11.13
2019-05-06T01:19:00.955Z,6.93
2019-05-06T01:20:37.623Z,8.67
2019-05-06T01:22:14.095Z,6.43
2019-05-06T01:23:50.730Z,8.03
2019-05-06T01:25:27.679Z,5.90
2019-05-06T01:27:04.182Z,7.80
2019-05-06T01:28:40.831Z,8.70
2019-05-06T01:30:19.024Z,7.97
2019-05-06T01:31:55.374Z,9.43
2019-05-06T01:33:31.662Z,10.67
2019-05-06T01:35:09.458Z,6.60
2019-05-06T01:36:45.899Z,6.90
2019-05-06T01:38:24.395Z,6.07
2019-05-06T01:40:06.672Z,7.37
2019-05-06T01:41:55.040Z,7.27
2019-05-06T01:43:34.654Z,10.67
2019-05-06T01:45:14.048Z,7.47
2019-05-06T01:46:51.508Z,6.97
2019-05-06T01:48:33.649Z,7.67
2019-05-06T01:50:10.383Z,6.53
2019-05-06T01:51:46.740Z,6.90
2019-05-06T01:53:24.181Z,7.83
2019-05-06T01:55:00.484Z,5.60
2019-05-06T01:56:36.955Z,7.23
2019-05-06T01:58:14.555Z,7.47
2019-05-06T01:59:51.016Z,7.97
2019-05-06T02:01:27.869Z,8.93
2019-05-06T02:03:04.227Z,5.50
2019-05-06T02:04:40.615Z,7.63
2019-05-06T02:06:17.127Z,8.33
2019-05-06T02:07:55.046Z,7.10
2019-05-06T02:09:31.678Z,5.93
2019-05-06T02:11:08.031Z,7.83
2019-05-06T02:12:44.487Z,9.60
2019-05-06T02:14:20.836Z,6.87
2019-05-06T02:15:57.261Z,7.90
2019-05-06T02:17:34.540Z,6.10
2019-05-06T02:19:10.916Z,6.93
2019-05-06T02:20:48.837Z,6.23
2019-05-06T02:22:29.614Z,5.93
2019-05-06T02:24:24.434Z,6.70
2019-05-06T02:26:01.221Z,5.30
2019-05-06T02:27:37.613Z,6.47
2019-05-06T02:29:18.782Z,8.33
2019-05-06T02:30:55.014Z,11.63
2019-05-06T02:32:38.816Z,7.00
2019-05-06T02:34:25.384Z,5.83
2019-05-06T02:36:02.883Z,8.57
2019-05-06T02:37:40.783Z,6.60
2019-05-06T02:39:17.208Z,6.20
2019-05-06T02:40:53.923Z,7.03
2019-05-06T02:42:33.568Z,6.90
2019-05-06T02:44:11.003Z,9.40
2019-05-06T02:45:47.017Z,6.27
2019-05-06T02:47:26.006Z,6.23
2019-05-06T02:49:06.966Z,8.30
2019-05-06T02:50:43.260Z,8.10
2019-05-06T02:52:22.644Z,7.33
2019-05-06T02:53:57.587Z,8.57
2019-05-06T02:55:36.302Z,15.53
2019-05-06T02:57:13.133Z,7.53
2019-05-06T02:58:53.160Z,8.40
2019-05-06T03:00:28.103Z,11.93
2019-05-06T03:02:04.565Z,6.43
2019-05-06T03:03:43.628Z,5.77
2019-05-06T03:05:19.221Z,6.60
2019-05-06T03:06:56.052Z,8.03
2019-05-06T03:08:33.012Z,6.57
2019-05-06T03:10:16.272Z,7.97
2019-05-06T03:11:54.097Z,8.23
2019-05-06T03:13:33.649Z,6.30
2019-05-06T03:15:09.148Z,9.23
2019-05-06T03:16:45.759Z,5.90
2019-05-06T03:18:23.582Z,7.63
2019-05-06T03:20:04.259Z,8.73
2019-05-06T03:21:50.734Z,6.77
2019-05-06T03:23:44.691Z,5.17
2019-05-06T03:25:24.013Z,8.73
2019-05-06T03:27:04.132Z,7.63
2019-05-06T03:28:38.991Z,6.77
2019-05-06T03:30:16.727Z,8.53
2019-05-06T03:31:56.187Z,8.33
2019-05-06T03:33:50.701Z,7.87
2019-05-06T03:35:31.381Z,7.53
2019-05-06T03:36:49.060Z,7.83
2019-05-06T03:38:25.717Z,5.83
2019-05-06T03:40:03.032Z,6.87
2019-05-06T03:41:39.817Z,7.17
2019-05-06T03:43:17.175Z,9.00
2019-05-06T03:44:55.557Z,8.73
2019-05-06T03:48:44.167Z,7.10
2019-05-06T03:50:19.497Z,6.43
2019-05-06T03:51:56.561Z,11.63
2019-05-06T03:53:35.086Z,7.43
2019-05-06T03:55:13.948Z,5.80
2019-05-06T03:56:53.675Z,7.67
2019-05-06T03:58:29.849Z,8.97
2019-05-06T04:00:12.992Z,8.37
2019-05-06T04:01:48.238Z,6.07
2019-05-06T04:03:42.068Z,7.67
2019-05-06T04:05:03.961Z,7.70
2019-05-06T04:06:43.640Z,6.87
2019-05-06T04:08:23.991Z,8.33
2019-05-06T04:09:59.200Z,8.13
2019-05-06T04:11:36.700Z,6.43
2019-05-06T04:13:13.612Z,6.43
2019-05-06T04:14:53.644Z,6.87
2019-05-06T04:16:29.733Z,8.17
2019-05-06T04:18:14.087Z,7.87
2019-05-06T04:19:55.347Z,5.23
2019-05-06T04:21:43.424Z,6.30
2019-05-06T04:23:28.925Z,5.40
2019-05-06T04:25:13.818Z,9.63
2019-05-06T04:26:54.185Z,6.57
2019-05-06T04:28:34.167Z,7.80
2019-05-06T04:30:13.537Z,7.23
2019-05-06T04:31:54.112Z,6.77
2019-05-06T04:33:33.014Z,9.27
2019-05-06T04:35:08.676Z,6.47
2019-05-06T04:36:45.375Z,6.97
2019-05-06T04:38:23.539Z,6.83
2019-05-06T04:40:04.219Z,9.03
2019-05-06T04:41:38.938Z,6.97
2019-05-06T04:43:15.742Z,8.60
2019-05-06T04:44:53.127Z,6.13
2019-05-06T04:46:34.363Z,7.97
2019-05-06T04:48:08.812Z,6.93
2019-05-06T04:49:45.917Z,9.83
2019-05-06T04:51:24.774Z,6.33
2019-05-06T04:53:05.541Z,7.30
2019-05-06T04:54:44.127Z,7.23
2019-05-06T04:56:23.447Z,7.87
2019-05-06T04:57:58.807Z,8.80
2019-05-06T04:59:36.641Z,6.83
2019-05-06T05:01:15.693Z,8.50
2019-05-06T05:02:54.989Z,8.23
2019-05-06T05:04:32.654Z,7.40
2019-05-06T05:06:08.463Z,7.33
2019-05-06T05:07:45.932Z,6.87
2019-05-06T05:09:23.920Z,7.87
2019-05-06T05:11:09.432Z,7.80
2019-05-06T05:12:48.077Z,212.47
2019-05-06T05:14:36.548Z,74.50
2019-05-06T05:16:15.707Z,30.73
2019-05-06T05:17:54.058Z,6.77
2019-05-06T05:19:32.759Z,8.03
2019-05-06T05:21:09.521Z,6.93
2019-05-06T05:22:46.416Z,7.73
2019-05-06T05:24:23.563Z,10.67
2019-05-06T05:25:59.926Z,8.27
2019-05-06T05:27:36.539Z,7.90
2019-05-06T05:29:13.190Z,14.20
2019-05-06T05:30:49.635Z,9.20
2019-05-06T05:32:27.101Z,11.00
2019-05-06T05:34:03.942Z,9.13
2019-05-06T05:35:40.437Z,5.77
2019-05-06T05:37:17.101Z,6.57
2019-05-06T05:38:53.716Z,8.97
2019-05-06T05:40:32.195Z,5.60
2019-05-06T05:42:12.322Z,8.80
2019-05-06T05:43:53.825Z,6.00
2019-05-06T05:45:32.592Z,7.43
2019-05-06T05:47:12.241Z,6.73
2019-05-06T05:48:56.006Z,5.67
2019-05-06T05:50:35.178Z,6.33
2019-05-06T05:52:12.698Z,7.07
2019-05-06T05:53:49.459Z,8.37
2019-05-06T05:55:25.781Z,6.07
2019-05-06T05:57:04.088Z,5.70
2019-05-06T05:58:42.448Z,5.80
2019-05-06T06:00:19.568Z,5.73
2019-05-06T06:01:55.970Z,6.70
2019-05-06T06:03:33.591Z,6.63
2019-05-06T06:05:12.362Z,6.57
2019-05-06T06:06:48.788Z,5.53
2019-05-06T06:08:25.151Z,43.73
2019-05-06T06:10:16.581Z,7.60
2019-05-06T06:11:56.475Z,9.23
2019-05-06T06:13:33.456Z,6.07
2019-05-06T06:15:10.116Z,7.70
2019-05-06T06:16:52.745Z,5.97
2019-05-06T06:18:33.368Z,9.63
2019-05-06T06:20:27.423Z,8.27
2019-05-06T06:22:05.787Z,5.47
2019-05-06T06:23:43.755Z,5.77
2019-05-06T06:25:23.460Z,11.00
2019-05-06T06:27:00.236Z,6.40
2019-05-06T06:28:36.583Z,6.90
2019-05-06T06:30:13.353Z,7.90
2019-05-06T06:31:52.470Z,8.23
2019-05-06T06:33:29.718Z,6.20
2019-05-06T06:35:14.189Z,6.00
2019-05-06T06:36:48.124Z,7.17
2019-05-06T06:38:28.995Z,7.40
2019-05-06T06:40:09.663Z,4.83
2019-05-06T06:41:46.161Z,6.13
2019-05-06T06:43:24.348Z,4.07
2019-05-06T06:45:03.469Z,6.70
2019-05-06T06:46:40.164Z,6.87
2019-05-06T06:48:16.482Z,6.10
2019-05-06T06:49:53.593Z,5.27
2019-05-06T06:51:32.919Z,9.70
2019-05-06T06:53:09.261Z,5.07
2019-05-06T06:54:45.885Z,5.27
2019-05-06T06:56:42.280Z,5.10
2019-05-06T06:58:22.766Z,5.73
2019-05-06T07:00:07.329Z,3.73
2019-05-06T07:02:02.806Z,3.70
2019-05-06T07:03:43.145Z,6.67
2019-05-06T07:05:37.586Z,7.63
2019-05-06T07:07:15.964Z,4.93
2019-05-06T07:08:52.495Z,4.37
2019-05-06T07:10:44.025Z,5.90
2019-05-06T07:12:23.301Z,5.40
2019-05-06T07:13:59.117Z,7.50
2019-05-06T07:15:35.712Z,4.53
2019-05-06T07:17:13.600Z,4.57
2019-05-06T07:18:52.436Z,4.13
2019-05-06T07:20:32.487Z,6.10
2019-05-06T07:22:09.090Z,5.53
2019-05-06T07:23:45.723Z,4.23
2019-05-06T07:25:22.929Z,6.60
2019-05-06T07:27:02.905Z,6.00
2019-05-06T07:28:39.157Z,4.90
2019-05-06T07:30:16.126Z,4.03
2019-05-06T07:31:53.583Z,4.07
2019-05-06T07:33:30.486Z,3.20
2019-05-06T07:35:07.279Z,3.47
2019-05-06T07:36:43.733Z,5.83
2019-05-06T07:38:19.995Z,7.10
2019-05-06T07:39:56.502Z,5.37
2019-05-06T07:41:37.243Z,5.73
2019-05-06T07:43:24.196Z,4.60
2019-05-06T07:45:18.189Z,5.63
2019-05-06T07:46:56.516Z,4.53
2019-05-06T07:48:33.679Z,4.13
2019-05-06T07:50:13.096Z,4.53
2019-05-06T07:51:49.744Z,5.30
2019-05-06T07:53:27.725Z,7.30
2019-05-06T07:55:04.815Z,7.17
2019-05-06T07:56:42.837Z,7.10
2019-05-06T07:58:19.426Z,5.37
2019-05-06T07:59:55.806Z,5.67
2019-05-06T08:01:33.257Z,7.90
2019-05-06T08:03:09.749Z,5.77
2019-05-06T08:04:46.241Z,4.40
2019-05-06T08:06:22.857Z,5.80
2019-05-06T08:07:59.438Z,5.47
2019-05-06T08:09:36.042Z,3.80
2019-05-06T08:11:12.694Z,6.37
2019-05-06T08:12:49.123Z,4.00
2019-05-06T08:14:27.193Z,3.37
2019-05-06T08:16:03.908Z,3.33
2019-05-06T08:17:42.336Z,3.63
2019-05-06T08:19:19.144Z,4.50
2019-05-06T08:20:56.232Z,4.23
2019-05-06T08:22:43.451Z,3.33
2019-05-06T08:24:22.744Z,4.20
2019-05-06T08:26:11.679Z,4.33
2019-05-06T08:27:36.956Z,3.50
2019-05-06T08:29:15.916Z,5.90
2019-05-06T08:30:53.146Z,5.20
2019-05-06T08:32:29.494Z,3.27
2019-05-06T08:34:06.292Z,5.57
2019-05-06T08:35:43.787Z,6.10
2019-05-06T08:37:36.691Z,3.80
2019-05-06T08:39:14.506Z,5.37
2019-05-06T08:40:52.565Z,3.83
2019-05-06T08:42:29.210Z,4.23
2019-05-06T08:44:06.906Z,3.37
2019-05-06T08:45:43.247Z,4.50
2019-05-06T08:47:19.674Z,3.83
2019-05-06T08:48:56.179Z,5.47
2019-05-06T08:50:49.069Z,2.90
2019-05-06T08:52:27.221Z,5.30
2019-05-06T08:54:06.270Z,4.97
2019-05-06T08:55:45.202Z,7.90
2019-05-06T08:57:22.802Z,4.13
2019-05-06T08:58:59.310Z,5.23
2019-05-06T09:00:46.207Z,5.13
2019-05-06T09:02:26.430Z,4.33
2019-05-06T09:04:11.297Z,6.93
2019-05-06T09:05:43.461Z,5.47
2019-05-06T09:07:19.838Z,6.60
2019-05-06T09:08:57.020Z,5.10
2019-05-06T09:10:33.655Z,3.43
2019-05-06T09:12:10.182Z,6.07
2019-05-06T09:13:46.692Z,4.13
2019-05-06T09:15:23.288Z,5.50
2019-05-06T09:16:59.797Z,6.07
2019-05-06T09:18:36.273Z,5.60
2019-05-06T09:20:13.896Z,3.20
2019-05-06T09:21:50.153Z,4.00
2019-05-06T09:23:27.615Z,3.53
2019-05-06T09:25:05.470Z,4.27
2019-05-06T09:26:55.641Z,3.30
2019-05-06T09:28:39.518Z,5.50
2019-05-06T09:30:25.290Z,4.50
2019-05-06T09:32:03.336Z,5.83
2019-05-06T09:33:42.510Z,3.43
2019-05-06T09:35:32.800Z,5.60
2019-05-06T09:37:16.455Z,7.27
2019-05-06T09:38:53.110Z,2.90
2019-05-06T09:40:29.454Z,2.70
2019-05-06T09:42:06.071Z,2.37
2019-05-06T09:43:43.325Z,3.87
2019-05-06T09:45:20.130Z,3.53
2019-05-06T09:46:56.638Z,3.70
2019-05-06T09:48:42.452Z,3.20
2019-05-06T09:50:39.966Z,3.40
2019-05-06T09:52:16.600Z,4.17
2019-05-06T09:54:06.714Z,8.00
2019-05-06T09:55:44.884Z,5.07
2019-05-06T09:57:28.889Z,3.93
2019-05-06T09:59:05.595Z,5.40
2019-05-06T10:00:43.747Z,5.10
2019-05-06T10:02:22.838Z,3.73
2019-05-06T10:04:03.192Z,3.40
2019-05-06T10:05:38.402Z,4.67
2019-05-06T10:07:15.115Z,6.20
2019-05-06T10:08:51.625Z,2.87
2019-05-06T10:10:32.796Z,4.87
2019-05-06T10:12:09.792Z,4.00
2019-05-06T10:13:46.308Z,4.03
2019-05-06T10:15:23.665Z,3.30
2019-05-06T10:17:04.187Z,5.57
2019-05-06T10:18:38.220Z,5.00
2019-05-06T10:20:14.723Z,4.13
2019-05-06T10:21:53.082Z,7.33
2019-05-06T10:23:32.738Z,3.77
2019-05-06T10:25:11.901Z,3.97
2019-05-06T10:26:52.186Z,2.67
2019-05-06T10:28:33.496Z,3.37
2019-05-06T10:30:12.694Z,4.23
2019-05-06T10:31:53.991Z,3.93
2019-05-06T10:33:32.967Z,3.83
2019-05-06T10:35:10.049Z,3.80
2019-05-06T10:37:18.562Z,5.70
2019-05-06T10:39:02.344Z,5.90
2019-05-06T10:41:00.892Z,5.37
2019-05-06T10:42:43.051Z,3.93
2019-05-06T10:44:33.002Z,3.03
2019-05-06T10:46:09.592Z,5.13
2019-05-06T10:47:45.917Z,8.03
2019-05-06T10:49:23.446Z,3.07
2019-05-06T10:51:03.560Z,6.53
2019-05-06T10:52:44.530Z,2.93
2019-05-06T10:54:22.919Z,7.47
2019-05-06T10:56:03.820Z,4.70
2019-05-06T10:57:43.097Z,4.70
2019-05-06T10:59:22.099Z,4.77
2019-05-06T11:01:03.631Z,4.33
2019-05-06T11:02:52.399Z,3.77
2019-05-06T11:04:29.067Z,4.43
2019-05-06T11:06:05.800Z,5.23
2019-05-06T11:07:43.097Z,5.30
2019-05-06T11:09:22.530Z,6.00
2019-05-06T11:11:11.596Z,9.70
2019-05-06T11:12:36.234Z,5.77
2019-05-06T11:14:13.663Z,4.00
2019-05-06T11:15:52.785Z,7.70
2019-05-06T11:17:28.247Z,6.30
2019-05-06T11:19:05.299Z,3.27
2019-05-06T11:20:43.731Z,9.90
2019-05-06T11:22:22.298Z,5.27
2019-05-06T11:23:58.303Z,5.57
2019-05-06T11:25:37.641Z,4.27
2019-05-06T11:27:27.714Z,3.47
2019-05-06T11:28:56.163Z,4.00
2019-05-06T11:30:35.510Z,4.07
2019-05-06T11:32:29.642Z,3.57
2019-05-06T11:34:16.756Z,6.70
2019-05-06T11:35:54.917Z,4.20
2019-05-06T11:37:46.964Z,6.20
2019-05-06T11:39:17.361Z,5.63
2019-05-06T11:40:53.838Z,5.43
2019-05-06T11:42:33.460Z,3.10
2019-05-06T11:44:09.122Z,5.67
2019-05-06T11:45:45.813Z,5.37
2019-05-06T11:47:23.508Z,5.87
2019-05-06T11:48:59.998Z,4.77
2019-05-06T11:50:36.486Z,3.37
2019-05-06T11:52:13.068Z,5.77
2019-05-06T11:53:53.878Z,3.80
2019-05-06T11:55:33.799Z,5.20
2019-05-06T11:57:09.507Z,4.83
2019-05-06T11:58:50.252Z,6.70
2019-05-06T12:00:35.591Z,6.10
2019-05-06T12:02:12.601Z,11.50
2019-05-06T12:03:48.438Z,7.23
2019-05-06T12:05:24.868Z,5.43
2019-05-06T12:07:10.316Z,6.27
2019-05-06T12:08:39.323Z,5.33
2019-05-06T12:10:16.037Z,5.20
2019-05-06T12:11:53.004Z,10.53
2019-05-06T12:13:29.956Z,10.73
2019-05-06T12:15:16.785Z,7.50
2019-05-06T12:16:55.094Z,15.70
2019-05-06T12:18:31.162Z,9.33
2019-05-06T12:20:08.466Z,9.10
2019-05-06T12:21:44.798Z,5.43
2019-05-06T12:23:22.430Z,5.70
2019-05-06T12:24:59.282Z,6.17
2019-05-06T12:26:36.528Z,5.33
2019-05-06T12:28:13.445Z,4.57
2019-05-06T12:29:49.819Z,5.33
2019-05-06T12:31:26.180Z,4.60
2019-05-06T12:33:03.158Z,9.40
2019-05-06T12:34:40.035Z,4.23
2019-05-06T12:36:18.887Z,5.00
2019-05-06T12:37:57.273Z,5.83
2019-05-06T12:39:33.918Z,3.67
2019-05-06T12:41:10.354Z,6.07
2019-05-06T12:42:48.556Z,9.93
2019-05-06T12:44:25.474Z,7.60
2019-05-06T12:46:04.373Z,2.77
2019-05-06T12:47:46.135Z,4.13
2019-05-06T12:49:22.500Z,11.53
2019-05-06T12:51:00.437Z,4.47
2019-05-06T12:52:36.892Z,9.33
2019-05-06T12:54:13.627Z,3.27
2019-05-06T12:55:52.025Z,5.47
2019-05-06T12:57:28.771Z,6.83
2019-05-06T12:59:05.281Z,5.97
2019-05-06T13:00:41.716Z,7.10
2019-05-06T13:02:18.358Z,5.20
2019-05-06T13:03:55.259Z,4.70
2019-05-06T13:05:32.125Z,5.60
2019-05-06T13:07:10.110Z,7.17
2019-05-06T13:08:58.688Z,6.00
2019-05-06T13:10:24.806Z,7.73
2019-05-06T13:12:03.784Z,6.47
2019-05-06T13:13:55.624Z,5.97
2019-05-06T13:15:17.561Z,3.80
2019-05-06T13:16:55.019Z,7.73
2019-05-06T13:18:32.752Z,5.23
2019-05-06T13:20:14.695Z,4.07
2019-05-06T13:21:49.537Z,4.27
2019-05-06T13:23:26.253Z,3.87
2019-05-06T13:25:04.630Z,3.30
2019-05-06T13:26:43.152Z,8.00
2019-05-06T13:28:22.389Z,3.60
2019-05-06T13:29:59.125Z,3.80
2019-05-06T13:31:35.568Z,4.97
2019-05-06T13:33:25.947Z,4.93
2019-05-06T13:35:03.009Z,5.17
2019-05-06T13:36:42.603Z,6.73
2019-05-06T13:38:19.018Z,7.97
2019-05-06T13:39:56.073Z,5.87
2019-05-06T13:41:32.849Z,11.80
2019-05-06T13:43:13.115Z,5.07
2019-05-06T13:44:50.955Z,8.23
2019-05-06T13:46:28.935Z,10.27
2019-05-06T13:48:07.095Z,9.27
2019-05-06T13:49:54.623Z,9.70
2019-05-06T13:51:32.382Z,7.80
2019-05-06T13:53:12.413Z,7.97
2019-05-06T13:54:47.356Z,10.30
2019-05-06T13:56:23.894Z,10.20
2019-05-06T13:58:03.241Z,8.07
2019-05-06T13:59:39.288Z,7.70
2019-05-06T14:01:17.338Z,4.30
2019-05-06T14:02:55.721Z,6.23
2019-05-06T14:04:32.704Z,10.07
2019-05-06T14:06:09.444Z,6.53
2019-05-06T14:07:46.100Z,8.77
2019-05-06T14:09:31.200Z,9.13
2019-05-06T14:11:03.130Z,10.20
2019-05-06T14:12:42.425Z,11.67
2019-05-06T14:14:17.870Z,5.60
2019-05-06T14:16:05.048Z,4.27
2019-05-06T14:17:45.404Z,17.83
2019-05-06T14:19:38.364Z,5.17
2019-05-06T14:21:18.136Z,6.30
2019-05-06T14:23:02.266Z,6.70
2019-05-06T14:26:48.233Z,7.87
2019-05-06T14:28:27.724Z,8.10
2019-05-06T14:30:26.418Z,7.53
2019-05-06T14:32:03.175Z,8.03
2019-05-06T14:33:39.709Z,4.07
2019-05-06T14:35:16.393Z,5.77
2019-05-06T14:36:53.529Z,4.10
2019-05-06T14:38:32.160Z,6.73
2019-05-06T14:40:11.899Z,5.27
2019-05-06T14:41:50.301Z,9.07
2019-05-06T14:43:26.732Z,8.60
2019-05-06T14:45:03.168Z,3.63
2019-05-06T14:46:43.998Z,6.60
2019-05-06T14:48:22.473Z,5.17
2019-05-06T14:49:59.378Z,6.00
2019-05-06T14:51:35.738Z,6.17
2019-05-06T14:53:13.023Z,5.50
2019-05-06T14:54:53.214Z,6.47
2019-05-06T14:56:32.483Z,4.43
2019-05-06T14:58:08.685Z,5.43
2019-05-06T14:59:45.029Z,8.07
2019-05-06T15:01:22.748Z,5.67
2019-05-06T15:02:59.067Z,4.80
2019-05-06T15:04:35.607Z,7.33
2019-05-06T15:06:12.895Z,6.30
2019-05-06T15:07:49.528Z,5.47
2019-05-06T15:09:25.943Z,7.83
2019-05-06T15:11:03.123Z,5.73
2019-05-06T15:12:42.485Z,5.70
2019-05-06T15:14:18.252Z,7.60
2019-05-06T15:15:55.027Z,7.20
2019-05-06T15:17:32.893Z,4.73
2019-05-06T15:19:09.925Z,5.03
2019-05-06T15:20:46.772Z,5.50
2019-05-06T15:22:23.399Z,10.67
2019-05-06T15:23:59.890Z,7.17
2019-05-06T15:25:36.391Z,4.87
2019-05-06T15:27:13.132Z,5.60
2019-05-06T15:28:49.645Z,4.67
2019-05-06T15:30:36.905Z,7.67
2019-05-06T15:32:15.132Z,5.23
2019-05-06T15:34:04.852Z,6.13
2019-05-06T15:35:43.550Z,5.80
2019-05-06T15:37:21.584Z,6.27
2019-05-06T15:38:58.215Z,4.97
2019-05-06T15:40:36.717Z,8.27
2019-05-06T15:42:12.918Z,5.23
2019-05-06T15:43:49.862Z,6.00
2019-05-06T15:45:26.259Z,7.03
2019-05-06T15:47:03.243Z,5.27
2019-05-06T15:48:41.580Z,8.60
2019-05-06T15:50:18.365Z,8.73
2019-05-06T15:51:55.858Z,7.47
2019-05-06T15:53:33.296Z,11.10
2019-05-06T15:55:10.198Z,8.50
2019-05-06T15:56:47.044Z,9.33
2019-05-06T15:58:23.441Z,19.40
2019-05-06T16:00:02.366Z,6.40
2019-05-06T16:01:39.076Z,10.73
2019-05-06T16:03:15.523Z,5.77
2019-05-06T16:04:52.040Z,7.87
2019-05-06T16:06:28.555Z,9.70
2019-05-06T16:08:05.170Z,14.43
2019-05-06T16:09:42.882Z,9.07
2019-05-06T16:11:19.501Z,8.97
2019-05-06T16:12:55.931Z,6.57
2019-05-06T16:14:34.824Z,9.67
2019-05-06T16:16:11.024Z,15.27
2019-05-06T16:17:54.751Z,12.83
2019-05-06T16:19:33.598Z,8.63
2019-05-06T16:21:09.840Z,7.37
2019-05-06T16:22:47.863Z,13.73
2019-05-06T16:24:25.798Z,9.03
2019-05-06T16:26:02.958Z,13.17
2019-05-06T16:27:43.787Z,11.27
2019-05-06T16:29:22.273Z,9.60
2019-05-06T16:30:58.479Z,8.30
2019-05-06T16:32:34.733Z,7.87
2019-05-06T16:34:12.417Z,11.77
2019-05-06T16:35:49.271Z,9.47
2019-05-06T16:37:25.654Z,8.90
2019-05-06T16:39:03.600Z,9.40
2019-05-06T16:40:45.038Z,7.40
2019-05-06T16:42:18.062Z,7.10
2019-05-06T16:43:54.767Z,8.13
2019-05-06T16:45:31.197Z,6.30
2019-05-06T16:47:08.740Z,9.63
2019-05-06T16:48:45.622Z,14.20
2019-05-06T16:50:24.084Z,8.63
2019-05-06T16:52:02.574Z,7.10
2019-05-06T16:53:38.743Z,9.77
2019-05-06T16:55:24.036Z,12.23
2019-05-06T16:57:04.407Z,8.17
2019-05-06T16:58:47.259Z,10.83
2019-05-06T17:00:25.976Z,11.20
2019-05-06T17:02:04.129Z,10.13
2019-05-06T17:03:44.916Z,10.17
2019-05-06T17:05:22.470Z,9.47
2019-05-06T17:06:58.950Z,8.93
2019-05-06T17:08:36.617Z,13.90
2019-05-06T17:10:13.543Z,8.67
2019-05-06T17:11:50.901Z,9.60
2019-05-06T17:13:27.659Z,8.40
2019-05-06T17:15:04.657Z,14.93
2019-05-06T17:16:42.322Z,14.60
2019-05-06T17:18:18.860Z,12.73
2019-05-06T17:19:55.747Z,11.93
2019-05-06T17:21:33.202Z,19.10
2019-05-06T17:23:09.907Z,17.93
2019-05-06T17:24:48.609Z,13.17
2019-05-06T17:26:24.643Z,13.30
2019-05-06T17:28:02.587Z,14.97
2019-05-06T17:29:42.677Z,23.50
2019-05-06T17:31:37.569Z,22.33
2019-05-06T17:33:33.438Z,12.67
2019-05-06T17:35:12.601Z,15.00
2019-05-06T17:36:50.865Z,15.40
2019-05-06T17:38:37.739Z,18.87
2019-05-06T17:40:19.398Z,23.80
2019-05-06T17:41:56.226Z,25.53
2019-05-06T17:43:37.555Z,24.77
2019-05-06T17:45:32.206Z,30.13
2019-05-06T17:47:08.423Z,11.57
2019-05-06T17:48:49.526Z,12.73
2019-05-06T17:50:26.041Z,20.23
2019-05-06T17:52:03.090Z,15.23
2019-05-06T17:53:42.908Z,13.83
2019-05-06T17:55:19.266Z,19.73
2019-05-06T17:56:56.762Z,25.40
2019-05-06T17:58:33.324Z,20.87
2019-05-06T18:00:10.314Z,19.60
2019-05-06T18:01:49.256Z,15.60
2019-05-06T18:03:25.646Z,13.23
2019-05-06T18:05:02.818Z,14.83
2019-05-06T18:06:39.395Z,25.00
2019-05-06T18:08:15.687Z,15.10
2019-05-06T18:09:53.145Z,18.20
2019-05-06T18:11:33.297Z,30.73
2019-05-06T18:13:12.601Z,16.33
2019-05-06T18:14:49.214Z,20.87
2019-05-06T18:16:25.510Z,13.23
2019-05-06T18:18:02.260Z,15.63
2019-05-06T18:19:38.973Z,16.53
2019-05-06T18:21:15.643Z,18.00
2019-05-06T18:22:52.512Z,20.43
2019-05-06T18:24:29.094Z,15.17
2019-05-06T18:26:05.598Z,19.33
2019-05-06T18:27:43.010Z,17.97
2019-05-06T18:29:21.968Z,19.13
2019-05-06T18:30:57.750Z,20.13
2019-05-06T18:32:34.683Z,20.30
2019-05-06T18:34:12.925Z,29.00
2019-05-06T18:35:49.182Z,42.00
2019-05-06T18:37:25.629Z,36.53
2019-05-06T18:39:03.365Z,46.63
2019-05-06T18:40:42.437Z,69.37
2019-05-06T18:42:21.424Z,41.33
2019-05-06T18:43:57.107Z,46.87
2019-05-06T18:45:34.885Z,40.70
2019-05-06T18:47:12.336Z,55.17
2019-05-06T18:48:48.885Z,65.43
2019-05-06T18:50:36.508Z,57.90
2019-05-06T18:52:13.442Z,87.00
2019-05-06T18:53:52.198Z,105.37
2019-05-06T18:55:28.276Z,93.80
2019-05-06T18:57:05.135Z,57.77
2019-05-06T18:58:42.907Z,47.70
2019-05-06T19:00:22.496Z,41.03
2019-05-06T19:02:02.134Z,40.90
2019-05-06T19:03:40.630Z,35.83
2019-05-06T19:05:24.906Z,24.30
2019-05-06T19:07:10.511Z,19.37
2019-05-06T19:08:37.798Z,21.07
2019-05-06T19:10:33.226Z,18.77
2019-05-06T19:12:09.375Z,23.13
2019-05-06T19:13:46.176Z,22.70
2019-05-06T19:15:25.405Z,16.80
2019-05-06T19:17:02.697Z,20.53
2019-05-06T19:18:39.240Z,13.27
2019-05-06T19:20:15.768Z,14.10
2019-05-06T19:21:52.474Z,14.97
2019-05-06T19:23:31.913Z,15.53
2019-05-06T19:25:12.453Z,15.63
2019-05-06T19:26:47.831Z,15.50
2019-05-06T19:28:25.249Z,18.43
2019-05-06T19:30:03.515Z,15.40
2019-05-06T19:31:39.937Z,14.80
2019-05-06T19:33:17.182Z,13.80
2019-05-06T19:34:53.161Z,15.63
2019-05-06T19:36:29.666Z,16.40
2019-05-06T19:38:06.173Z,13.93
2019-05-06T19:39:43.160Z,14.50
2019-05-06T19:41:19.744Z,13.73
2019-05-06T19:42:56.601Z,12.30
2019-05-06T19:44:32.794Z,13.97
2019-05-06T19:46:11.968Z,15.27
2019-05-06T19:47:48.116Z,16.77
2019-05-06T19:49:24.541Z,13.13
2019-05-06T19:51:02.902Z,13.00
2019-05-06T19:52:38.937Z,13.97
2019-05-06T19:54:15.225Z,12.40
2019-05-06T19:55:53.014Z,12.27
2019-05-06T19:57:32.232Z,13.07
2019-05-06T19:59:08.369Z,12.77
2019-05-06T20:00:44.772Z,12.17
2019-05-06T20:02:25.492Z,13.53
2019-05-06T20:03:59.258Z,13.70
2019-05-06T20:05:37.400Z,15.43
2019-05-06T20:07:16.250Z,15.00
2019-05-06T20:08:57.312Z,14.83
2019-05-06T20:10:35.380Z,18.90
2019-05-06T20:12:16.044Z,15.80
2019-05-06T20:13:52.713Z,17.53
2019-05-06T20:17:18.720Z,17.63
2019-05-06T20:18:55.409Z,16.43
2019-05-06T20:20:34.888Z,16.83
2019-05-06T20:22:12.876Z,18.23
2019-05-06T20:23:48.901Z,20.67
2019-05-06T20:25:25.334Z,16.30
2019-05-06T20:27:03.058Z,15.40
2019-05-06T20:28:39.530Z,17.90
2019-05-06T20:30:16.221Z,17.37
2019-05-06T20:31:53.513Z,16.43
2019-05-06T20:33:32.525Z,17.83
2019-05-06T20:35:09.621Z,16.70
2019-05-06T20:36:45.920Z,20.87
2019-05-06T20:38:23.202Z,23.83
2019-05-06T20:39:59.568Z,19.27
2019-05-06T20:41:36.011Z,17.27
2019-05-06T20:43:20.215Z,19.97
2019-05-06T20:44:52.479Z,19.60
2019-05-06T20:46:28.995Z,23.97
2019-05-06T20:48:06.576Z,21.97
2019-05-06T20:49:43.302Z,18.50
2019-05-06T20:51:21.816Z,18.77
2019-05-06T20:52:58.321Z,20.10
2019-05-06T20:54:34.881Z,21.77
2019-05-06T20:56:12.410Z,21.63
2019-05-06T20:57:49.000Z,19.83
2019-05-06T20:59:26.356Z,20.33
2019-05-06T21:01:03.286Z,19.77
2019-05-06T21:02:39.679Z,20.13
2019-05-06T21:04:16.961Z,24.63
2019-05-06T21:05:53.415Z,22.53
2019-05-06T21:07:32.300Z,28.10
2019-05-06T21:09:12.209Z,20.97
2019-05-06T21:10:49.834Z,20.43
2019-05-06T21:12:26.079Z,25.50
2019-05-06T21:14:02.785Z,20.03
2019-05-06T21:15:39.147Z,19.53
2019-05-06T21:17:15.126Z,16.90
2019-05-06T21:18:52.179Z,18.70
2019-05-06T21:20:28.768Z,19.73
2019-05-06T21:22:08.010Z,19.47
2019-05-06T21:23:44.474Z,16.27
2019-05-06T21:25:22.589Z,18.87
2019-05-06T21:26:59.295Z,20.63
2019-05-06T21:28:35.551Z,14.37
2019-05-06T21:30:13.198Z,15.07
2019-05-06T21:31:49.715Z,17.27
2019-05-06T21:33:27.097Z,14.30
2019-05-06T21:35:03.809Z,18.30
2019-05-06T21:36:42.300Z,17.27
2019-05-06T21:38:19.560Z,16.67
2019-05-06T21:39:56.242Z,16.53
2019-05-06T21:41:32.819Z,17.47
2019-05-06T21:43:09.397Z,18.60
2019-05-06T21:44:46.006Z,21.17